Time;durP1;ratioP1;P1;durP2;ratioP2;P2;SDS_P1;SDS_P2;PMS_P1;PMS_P2;Temp;Humidity;BMP_temperature;BMP_pressure;BME280_temperature;BME280_humidity;BME280_pressure;Samples;Min_cycle;Max_cycle;Signal;HPM_P1;HPM_P2
2024/01/08 00:02:18;;;;;;;8.77;3.33;;;-1.50;99.90;;;;;;5114856;28;20042;-57
2024/01/08 00:04:44;;;;;;;8.65;3.22;;;-1.50;99.90;;;;;;5114331;28;20031;-57
2024/01/08 00:07:09;;;;;;;6.15;3.15;;;-1.50;99.90;;;;;;5114737;28;20127;-57
2024/01/08 00:09:35;;;;;;;5.28;3.05;;;-1.50;99.90;;;;;;5114737;28;20122;-57
2024/01/08 00:12:00;;;;;;;9.25;3.20;;;-1.50;99.90;;;;;;5114461;28;20043;-57
2024/01/08 00:14:26;;;;;;;8.57;3.00;;;-1.60;99.90;;;;;;5114445;28;20039;-57
2024/01/08 00:16:52;;;;;;;7.13;2.70;;;-1.60;99.90;;;;;;5033043;28;20049;-56
2024/01/08 00:19:18;;;;;;;6.57;3.35;;;-1.60;99.90;;;;;;5030972;28;20049;-56
2024/01/08 00:21:43;;;;;;;6.25;3.17;;;-1.60;99.90;;;;;;5030440;28;20038;-57
2024/01/08 00:24:09;;;;;;;6.95;2.95;;;-1.60;99.90;;;;;;5030897;28;20554;-58
2024/01/08 00:26:35;;;;;;;10.52;3.33;;;-1.60;99.90;;;;;;5067728;28;20490;-57
2024/01/08 00:29:01;;;;;;;8.15;3.13;;;-1.60;99.90;;;;;;5031676;28;20104;-57
2024/01/08 00:31:27;;;;;;;6.95;3.08;;;-1.60;99.90;;;;;;5037077;28;20049;-58
2024/01/08 00:33:53;;;;;;;10.32;3.40;;;-1.60;99.90;;;;;;5113779;28;20039;-58
2024/01/08 00:36:18;;;;;;;7.35;3.55;;;-1.60;99.90;;;;;;5113882;28;20035;-57
2024/01/08 00:38:44;;;;;;;6.32;3.03;;;-1.60;99.90;;;;;;5040273;28;20042;-58
2024/01/08 00:41:10;;;;;;;9.02;3.03;;;-1.60;99.90;;;;;;5114291;28;20537;-57
2024/01/08 00:43:35;;;;;;;7.18;3.40;;;-1.60;99.90;;;;;;5113891;28;20124;-57
2024/01/08 00:46:01;;;;;;;8.13;3.40;;;-1.60;99.90;;;;;;5015296;28;20073;-57
2024/01/08 00:48:27;;;;;;;10.75;3.53;;;-1.60;99.90;;;;;;5084417;28;20047;-58
2024/01/08 00:50:53;;;;;;;6.97;3.00;;;-1.70;99.90;;;;;;5113938;28;20038;-58
2024/01/08 00:53:18;;;;;;;8.82;3.63;;;-1.70;99.90;;;;;;5113191;28;20032;-57
2024/01/08 00:55:44;;;;;;;9.57;3.97;;;-1.70;99.90;;;;;;5114117;28;20058;-57
2024/01/08 00:58:09;;;;;;;7.45;3.25;;;-1.70;99.90;;;;;;5113712;28;20451;-57
2024/01/08 01:00:35;;;;;;;7.85;3.20;;;-1.70;99.90;;;;;;5108541;28;20402;-58
2024/01/08 01:03:01;;;;;;;7.32;3.17;;;-1.70;99.90;;;;;;5113201;28;20039;-56
2024/01/08 01:05:27;;;;;;;8.57;3.72;;;-1.40;99.90;;;;;;5033976;28;20041;-57
2024/01/08 01:07:53;;;;;;;8.93;3.85;;;-1.60;99.90;;;;;;5030142;28;20082;-58
2024/01/08 01:10:18;;;;;;;10.45;3.38;;;-1.40;99.90;;;;;;5030280;28;20077;-57
2024/01/08 01:12:44;;;;;;;7.53;2.95;;;-1.70;99.90;;;;;;5030147;28;20038;-56
2024/01/08 01:15:10;;;;;;;7.25;3.58;;;-1.70;99.90;;;;;;5113230;28;20497;-57
2024/01/08 01:17:35;;;;;;;7.70;3.70;;;-1.70;99.90;;;;;;5113015;28;20055;-58
2024/01/08 01:20:03;;;;;;;9.20;3.53;;;-1.70;99.90;;;;;;5113275;28;20107;-57
2024/01/08 01:22:28;;;;;;;8.45;3.55;;;-1.70;99.90;;;;;;5106626;28;20062;-57
2024/01/08 01:24:54;;;;;;;9.38;4.00;;;-1.70;99.90;;;;;;5113333;27;20040;-57
2024/01/08 01:27:20;;;;;;;7.88;3.72;;;-1.70;99.90;;;;;;5113289;28;20047;-56
2024/01/08 01:29:46;;;;;;;6.38;3.10;;;-1.70;99.90;;;;;;5109225;28;20095;-58
2024/01/08 01:32:11;;;;;;;9.15;3.33;;;-1.70;99.90;;;;;;5112850;28;20036;-57
2024/01/08 01:34:39;;;;;;;6.32;3.05;;;-1.70;99.90;;;;;;5032308;28;20040;-57
2024/01/08 01:37:05;;;;;;;7.93;3.08;;;-1.70;99.90;;;;;;5029735;28;20520;-57
2024/01/08 01:39:32;;;;;;;8.00;3.22;;;-1.70;99.90;;;;;;5029683;28;20166;-57
2024/01/08 01:41:58;;;;;;;9.32;4.10;;;-1.80;99.90;;;;;;5029429;28;20045;-57
2024/01/08 01:44:24;;;;;;;7.15;3.40;;;-1.70;99.90;;;;;;5029182;28;20068;-57
2024/01/08 01:46:51;;;;;;;8.75;3.67;;;-1.70;99.90;;;;;;5024708;28;20046;-57
2024/01/08 01:49:20;;;;;;;6.97;3.45;;;-1.70;99.90;;;;;;5112810;28;20533;-57
2024/01/08 01:51:47;;;;;;;10.57;3.65;;;-1.80;99.90;;;;;;5112396;28;20533;-58
2024/01/08 01:54:16;;;;;;;11.60;3.45;;;-1.70;99.90;;;;;;5089602;28;20048;-57
2024/01/08 01:56:46;;;;;;;11.77;4.32;;;-1.80;99.90;;;;;;5032624;28;20042;-57
2024/01/08 01:59:15;;;;;;;7.38;3.30;;;-1.80;99.90;;;;;;5111810;28;20530;-57
2024/01/08 02:01:41;;;;;;;8.52;3.78;;;-1.80;99.90;;;;;;5111821;28;20184;-58
2024/01/08 02:04:08;;;;;;;8.52;3.67;;;-1.80;99.90;;;;;;5111145;28;20073;-58
2024/01/08 02:06:36;;;;;;;12.10;4.28;;;-1.80;99.90;;;;;;5111951;28;20143;-58
2024/01/08 02:09:02;;;;;;;7.32;3.95;;;-1.80;99.90;;;;;;5033434;28;20092;-56
2024/01/08 02:11:29;;;;;;;8.73;3.40;;;-1.70;99.90;;;;;;5112074;28;20108;-58
2024/01/08 02:13:54;;;;;;;7.97;3.67;;;-1.70;99.90;;;;;;5104215;28;20067;-57
2024/01/08 02:16:20;;;;;;;9.30;4.07;;;-1.70;99.90;;;;;;5111989;28;20079;-57
2024/01/08 02:18:46;;;;;;;11.25;5.28;;;-1.60;99.90;;;;;;5111616;28;20072;-56
2024/01/08 02:21:12;;;;;;;6.72;3.42;;;-1.20;99.90;;;;;;5111879;28;20393;-56
2024/01/08 02:23:38;;;;;;;7.78;3.97;;;-1.60;99.90;;;;;;5112069;28;20047;-56
2024/01/08 02:26:04;;;;;;;11.13;4.68;;;-1.50;99.90;;;;;;5111493;28;20036;-58
2024/01/08 02:28:30;;;;;;;9.75;3.92;;;-1.50;99.90;;;;;;5110936;28;20557;-58
2024/01/08 02:30:56;;;;;;;12.15;4.57;;;-1.40;99.90;;;;;;5111573;28;20039;-57
2024/01/08 02:33:21;;;;;;;10.75;4.68;;;-1.40;99.90;;;;;;5013781;28;20125;-58
2024/01/08 02:35:47;;;;;;;10.52;4.75;;;-1.50;99.90;;;;;;5028160;28;20032;-58
2024/01/08 02:38:13;;;;;;;9.70;4.25;;;-1.40;99.90;;;;;;5047045;28;20071;-58
2024/01/08 02:40:41;;;;;;;10.05;3.95;;;-1.40;99.90;;;;;;5107488;28;20047;-58
2024/01/08 02:43:06;;;;;;;11.68;4.38;;;-1.40;99.90;;;;;;5031298;28;20105;-58
2024/01/08 02:45:32;;;;;;;9.95;4.68;;;-1.40;99.90;;;;;;5025779;28;20053;-57
2024/01/08 02:47:58;;;;;;;10.77;4.95;;;-1.40;99.90;;;;;;5059510;28;20047;-58
2024/01/08 02:50:23;;;;;;;11.38;4.45;;;-1.40;99.90;;;;;;5111532;28;20409;-57
2024/01/08 02:52:49;;;;;;;9.35;4.22;;;-1.30;99.90;;;;;;5110124;28;20036;-58
2024/01/08 02:55:15;;;;;;;9.40;4.35;;;-1.30;99.90;;;;;;5111752;28;20039;-57
2024/01/08 02:57:41;;;;;;;10.32;4.25;;;-1.30;99.90;;;;;;5111524;28;20046;-57
2024/01/08 03:00:08;;;;;;;9.98;4.45;;;-1.20;99.90;;;;;;5106053;28;20035;-58
2024/01/08 03:02:34;;;;;;;10.68;4.35;;;-1.20;99.90;;;;;;5111194;28;20135;-56
2024/01/08 03:04:59;;;;;;;12.27;5.50;;;-1.20;99.90;;;;;;5111476;28;20506;-57
2024/01/08 03:07:25;;;;;;;16.85;5.13;;;-1.10;99.90;;;;;;5028768;28;20045;-58
2024/01/08 03:09:56;;;;;;;12.25;4.53;;;-1.10;99.90;;;;;;5028090;28;20045;-57
2024/01/08 03:12:22;;;;;;;10.27;4.65;;;-1.10;99.90;;;;;;5088613;28;20043;-57
2024/01/08 03:14:48;;;;;;;12.32;5.30;;;-1.10;99.90;;;;;;5111512;28;20039;-57
2024/01/08 03:17:14;;;;;;;11.85;4.90;;;-1.10;99.90;;;;;;5032491;28;20037;-57
2024/01/08 03:19:40;;;;;;;9.82;4.93;;;-1.10;99.90;;;;;;5028237;28;20440;-57
2024/01/08 03:22:05;;;;;;;12.68;5.20;;;-1.00;99.90;;;;;;5046611;28;20039;-57
2024/01/08 03:24:31;;;;;;;9.88;4.97;;;-1.00;99.90;;;;;;5110939;28;20475;-57
2024/01/08 03:26:57;;;;;;;13.07;5.38;;;-1.00;99.90;;;;;;5086220;28;20036;-57
2024/01/08 03:29:23;;;;;;;10.32;5.13;;;-1.00;99.90;;;;;;5027445;28;20042;-58
2024/01/08 03:31:49;;;;;;;13.10;5.70;;;-0.90;99.90;;;;;;5050214;28;20077;-57
2024/01/08 03:34:15;;;;;;;9.73;4.65;;;-1.00;99.90;;;;;;5110085;28;20135;-57
2024/01/08 03:36:47;;;;;;;11.63;5.32;;;-0.90;99.90;;;;;;5052616;28;20045;-58
2024/01/08 03:39:14;;;;;;;12.75;5.55;;;-0.90;99.90;;;;;;5025501;28;20045;-57
2024/01/08 03:41:40;;;;;;;11.05;5.93;;;-0.90;99.90;;;;;;5081593;28;20035;-57
2024/01/08 03:44:07;;;;;;;10.07;5.00;;;-0.90;99.90;;;;;;5110376;28;20036;-57
2024/01/08 03:46:36;;;;;;;10.35;4.80;;;-0.90;99.90;;;;;;5110141;28;20051;-57
2024/01/08 03:49:06;;;;;;;11.23;6.05;;;-0.90;99.90;;;;;;5035821;28;20039;-57
2024/01/08 03:51:32;;;;;;;12.05;5.05;;;-0.90;99.90;;;;;;5110159;28;20027;-57
2024/01/08 03:53:58;;;;;;;13.55;5.75;;;-0.90;99.90;;;;;;5106374;28;20044;-57
2024/01/08 03:56:24;;;;;;;10.35;5.88;;;-0.90;99.90;;;;;;5110497;28;20165;-57
2024/01/08 03:58:49;;;;;;;12.43;5.30;;;-0.80;99.90;;;;;;5111101;28;20088;-58
2024/01/08 04:01:15;;;;;;;11.60;5.65;;;-0.80;99.90;;;;;;5110769;28;20044;-57
2024/01/08 04:03:41;;;;;;;11.13;5.47;;;-0.80;99.90;;;;;;5102872;28;20024;-58
2024/01/08 04:06:07;;;;;;;12.10;5.45;;;-0.80;99.90;;;;;;5044218;28;20072;-58
2024/01/08 04:08:33;;;;;;;13.88;5.90;;;-0.80;99.90;;;;;;5107625;28;20071;-57
2024/01/08 04:10:59;;;;;;;13.52;5.07;;;-0.80;99.90;;;;;;5031528;28;20029;-57
2024/01/08 04:13:24;;;;;;;11.88;6.05;;;-0.70;99.90;;;;;;5029049;28;20413;-58
2024/01/08 04:15:50;;;;;;;11.98;5.63;;;-0.80;99.90;;;;;;5110600;28;20046;-57
2024/01/08 04:18:16;;;;;;;11.13;6.07;;;-0.80;99.90;;;;;;5110921;28;20085;-58
2024/01/08 04:20:42;;;;;;;13.40;5.68;;;-0.70;99.90;;;;;;5102946;28;20067;-57
2024/01/08 04:23:08;;;;;;;12.63;5.60;;;-0.70;99.90;;;;;;5081274;28;20082;-60
2024/01/08 04:25:33;;;;;;;13.25;5.93;;;-0.70;99.90;;;;;;5069950;28;20041;-58
2024/01/08 04:27:59;;;;;;;12.10;6.20;;;-0.70;99.90;;;;;;5028353;28;20042;-57
2024/01/08 04:30:25;;;;;;;11.07;5.30;;;-0.70;99.90;;;;;;5054615;28;20031;-57
2024/01/08 04:32:50;;;;;;;11.68;5.30;;;-0.70;99.90;;;;;;5113433;28;20111;-57
2024/01/08 04:35:16;;;;;;;12.00;5.63;;;-0.70;99.90;;;;;;5112871;27;20047;-58
2024/01/08 04:37:41;;;;;;;13.65;5.43;;;-0.70;99.90;;;;;;5113386;28;20036;-57
2024/01/08 04:40:08;;;;;;;11.20;5.82;;;-0.60;99.90;;;;;;5113112;28;20044;-58
2024/01/08 04:42:33;;;;;;;10.88;5.90;;;-0.60;99.90;;;;;;5034171;28;20478;-58
2024/01/08 04:44:59;;;;;;;12.30;5.00;;;-0.70;99.90;;;;;;5046346;28;20050;-57
2024/01/08 04:47:25;;;;;;;15.52;5.55;;;-0.60;99.90;;;;;;5100306;28;20043;-57
2024/01/08 04:49:50;;;;;;;13.57;6.40;;;-0.60;99.90;;;;;;5083905;28;20057;-57
2024/01/08 04:52:16;;;;;;;11.73;5.25;;;-0.70;99.90;;;;;;5030565;28;20037;-58
2024/01/08 04:54:42;;;;;;;11.50;5.03;;;-0.60;99.90;;;;;;5045723;28;20544;-58
2024/01/08 04:57:09;;;;;;;10.10;5.07;;;-0.60;99.90;;;;;;5030482;28;20400;-58
2024/01/08 04:59:41;;;;;;;11.70;5.03;;;-0.60;99.90;;;;;;5030218;28;20480;-58
2024/01/08 05:02:08;;;;;;;11.65;4.93;;;-0.60;99.90;;;;;;5069637;28;20076;-57
2024/01/08 05:04:34;;;;;;;11.20;4.95;;;-0.60;99.90;;;;;;5106289;28;20428;-57
2024/01/08 05:07:00;;;;;;;10.10;4.45;;;-0.60;99.90;;;;;;5015196;28;20126;-57
2024/01/08 05:09:26;;;;;;;10.98;4.38;;;-0.60;99.90;;;;;;5035709;28;20076;-58
2024/01/08 05:11:51;;;;;;;7.65;3.85;;;-0.60;99.90;;;;;;5030528;28;20065;-58
2024/01/08 05:14:17;;;;;;;10.82;4.35;;;-0.60;99.90;;;;;;5075439;28;20028;-57
2024/01/08 05:16:43;;;;;;;10.45;4.28;;;-0.60;99.90;;;;;;5113274;28;20063;-58
2024/01/08 05:19:08;;;;;;;11.10;5.20;;;-0.60;99.90;;;;;;5090172;28;20122;-58
2024/01/08 05:21:34;;;;;;;7.78;4.43;;;-0.60;99.90;;;;;;5078162;28;20046;-57
2024/01/08 05:24:00;;;;;;;9.32;4.70;;;-0.60;99.90;;;;;;5113599;28;20359;-57
2024/01/08 05:26:25;;;;;;;10.73;4.35;;;-0.60;99.90;;;;;;5078106;28;20362;-57
2024/01/08 05:28:52;;;;;;;8.65;4.30;;;-0.70;99.90;;;;;;5113115;28;20073;-57
2024/01/08 05:31:17;;;;;;;10.48;4.28;;;-0.60;99.90;;;;;;5102830;27;20453;-57
2024/01/08 05:33:43;;;;;;;8.45;4.63;;;-0.60;99.90;;;;;;5112321;27;20043;-57
2024/01/08 05:36:09;;;;;;;8.88;4.20;;;-0.60;99.90;;;;;;5111665;28;20044;-57
2024/01/08 05:38:36;;;;;;;10.93;4.53;;;-0.60;99.90;;;;;;5036933;28;20102;-57
2024/01/08 05:41:01;;;;;;;8.15;4.32;;;-0.70;99.90;;;;;;5036958;28;20085;-57
2024/01/08 05:43:27;;;;;;;7.40;3.70;;;-0.60;99.90;;;;;;5043139;28;20085;-58
2024/01/08 05:45:54;;;;;;;9.75;4.60;;;-0.60;99.90;;;;;;5054557;27;20488;-57
2024/01/08 05:48:19;;;;;;;9.50;4.00;;;-0.70;99.90;;;;;;5055649;28;20086;-59
2024/01/08 05:50:46;;;;;;;8.90;4.60;;;-0.70;99.90;;;;;;5112579;28;20431;-59
2024/01/08 05:53:13;;;;;;;10.98;4.38;;;-0.70;99.90;;;;;;5065742;28;20074;-57
2024/01/08 05:55:38;;;;;;;9.38;3.92;;;-0.80;99.90;;;;;;5079603;28;20063;-56
2024/01/08 05:58:04;;;;;;;7.88;4.03;;;-0.70;99.90;;;;;;5076098;28;20120;-58
2024/01/08 06:00:30;;;;;;;9.30;4.30;;;-0.80;99.90;;;;;;5029818;28;20048;-57
2024/01/08 06:02:55;;;;;;;9.02;4.13;;;-0.80;99.90;;;;;;5029931;28;20404;-57
2024/01/08 06:05:21;;;;;;;9.65;3.90;;;-0.80;99.90;;;;;;5055041;28;20089;-56
2024/01/08 06:07:48;;;;;;;8.38;4.18;;;-0.90;99.90;;;;;;5107224;28;20047;-58
2024/01/08 06:10:14;;;;;;;7.20;3.22;;;-0.90;99.90;;;;;;5068984;28;20471;-58
2024/01/08 06:12:40;;;;;;;9.07;3.80;;;-0.90;99.90;;;;;;5069244;28;20036;-58
2024/01/08 06:15:06;;;;;;;6.53;3.33;;;-0.90;99.90;;;;;;5094796;28;20109;-57
2024/01/08 06:17:32;;;;;;;6.97;3.45;;;-0.90;99.90;;;;;;5090407;28;20038;-58
2024/01/08 06:19:57;;;;;;;8.65;3.30;;;-0.50;99.90;;;;;;5064808;28;20486;-58
2024/01/08 06:22:23;;;;;;;8.07;3.42;;;-0.90;99.90;;;;;;5111663;28;20074;-58
2024/01/08 06:24:49;;;;;;;8.95;3.33;;;-0.90;99.90;;;;;;5111466;28;20104;-57
2024/01/08 06:27:15;;;;;;;7.18;3.22;;;-0.90;99.90;;;;;;5112313;28;20035;-58
2024/01/08 06:29:41;;;;;;;8.80;3.28;;;-0.90;99.90;;;;;;5106199;27;20059;-58
2024/01/08 06:32:07;;;;;;;7.30;3.53;;;-1.00;99.90;;;;;;5106545;28;20039;-58
2024/01/08 06:34:33;;;;;;;7.53;3.58;;;-1.00;99.90;;;;;;5111938;28;20080;-58
2024/01/08 06:36:58;;;;;;;7.78;3.10;;;-1.00;99.90;;;;;;5040422;28;20484;-58
2024/01/08 06:39:26;;;;;;;6.93;3.30;;;-1.00;99.90;;;;;;5029032;28;20037;-57
2024/01/08 06:41:52;;;;;;;8.20;3.38;;;-0.90;99.90;;;;;;5046604;28;20045;-58
2024/01/08 06:44:17;;;;;;;6.80;3.50;;;-0.90;99.90;;;;;;5026287;28;20071;-58
2024/01/08 06:46:43;;;;;;;8.60;3.30;;;-0.90;99.90;;;;;;5028839;28;20076;-58
2024/01/08 06:49:09;;;;;;;7.35;3.67;;;-0.90;99.90;;;;;;5029147;28;20063;-58
2024/01/08 06:51:40;;;;;;;5.60;3.33;;;-0.90;99.90;;;;;;5027738;28;20460;-58
2024/01/08 06:54:06;;;;;;;9.98;3.50;;;-0.90;99.90;;;;;;5028825;28;20042;-59
2024/01/08 06:56:32;;;;;;;8.60;3.83;;;-0.90;99.90;;;;;;5082922;28;20041;-58
2024/01/08 06:59:01;;;;;;;8.40;3.40;;;-0.90;99.90;;;;;;5027410;28;20112;-58
2024/01/08 07:01:27;;;;;;;9.05;3.80;;;-0.90;99.90;;;;;;5056629;28;20531;-58
2024/01/08 07:03:53;;;;;;;9.65;3.72;;;-0.90;99.90;;;;;;5086988;28;20048;-58
2024/01/08 07:06:19;;;;;;;8.35;4.00;;;-0.90;99.90;;;;;;5045957;28;20039;-58
2024/01/08 07:08:45;;;;;;;8.52;4.03;;;-0.90;99.90;;;;;;5056737;28;20544;-58
2024/01/08 07:11:22;;;;;;;11.13;4.35;;;-0.90;99.90;;;;;;5028366;28;20045;-57
2024/01/08 07:13:47;;;;;;;12.15;4.05;;;-0.90;99.90;;;;;;5069183;28;20031;-57
2024/01/08 07:16:13;;;;;;;10.80;3.80;;;-0.90;99.90;;;;;;5065185;28;20111;-57
2024/01/08 07:18:38;;;;;;;9.48;4.25;;;-0.90;99.90;;;;;;5111924;28;20520;-58
2024/01/08 07:21:05;;;;;;;8.20;4.18;;;-0.90;99.90;;;;;;5099897;28;20043;-57
2024/01/08 07:23:32;;;;;;;8.95;4.20;;;-0.80;99.90;;;;;;5071016;28;20120;-57
2024/01/08 07:25:58;;;;;;;7.93;4.32;;;-0.90;99.90;;;;;;5081888;28;20045;-59
2024/01/08 07:28:24;;;;;;;7.25;3.90;;;-0.80;99.90;;;;;;5092369;28;20074;-58
2024/01/08 07:30:49;;;;;;;11.77;4.25;;;0.10;99.90;;;;;;5023633;28;20069;-60
2024/01/08 07:33:15;;;;;;;12.75;4.82;;;-0.90;99.90;;;;;;5026080;28;20640;-58
2024/01/08 07:35:41;;;;;;;11.68;4.53;;;-0.80;99.90;;;;;;5069204;28;20068;-58
2024/01/08 07:38:07;;;;;;;9.82;4.35;;;-0.90;99.90;;;;;;5109759;28;20392;-58
2024/01/08 07:40:32;;;;;;;8.93;4.07;;;-0.80;99.90;;;;;;5031071;28;20248;-57
2024/01/08 07:42:58;;;;;;;10.18;4.88;;;-0.80;99.90;;;;;;5060674;28;20035;-56
2024/01/08 07:45:26;;;;;;;10.73;4.38;;;-0.80;99.90;;;;;;5019439;28;20082;-58
2024/01/08 07:47:52;;;;;;;10.68;4.65;;;-0.80;99.90;;;;;;5082628;28;20044;-58
2024/01/08 07:50:19;;;;;;;10.32;4.18;;;-0.80;99.90;;;;;;5082183;28;20038;-55
2024/01/08 07:52:45;;;;;;;11.23;4.72;;;-0.80;99.90;;;;;;5109956;28;20502;-54
2024/01/08 07:55:10;;;;;;;10.23;3.92;;;-0.80;99.90;;;;;;5041805;28;20038;-56
2024/01/08 07:57:36;;;;;;;9.30;4.13;;;-0.50;99.90;;;;;;5072385;28;20044;-56
2024/01/08 08:00:05;;;;;;;9.60;4.60;;;-0.80;99.90;;;;;;5100209;28;20043;-57
2024/01/08 08:02:30;;;;;;;7.30;3.42;;;-0.70;99.90;;;;;;5092574;28;20037;-55
2024/01/08 08:04:56;;;;;;;10.45;4.65;;;-0.70;99.90;;;;;;5030729;28;20033;-56
2024/01/08 08:07:22;;;;;;;9.82;4.97;;;-0.70;99.90;;;;;;5045504;28;20474;-54
2024/01/08 08:09:47;;;;;;;9.82;4.53;;;-0.80;99.90;;;;;;5032026;27;20042;-57
2024/01/08 08:12:13;;;;;;;9.88;3.80;;;-0.70;99.90;;;;;;5019371;28;20414;-56
2024/01/08 08:14:39;;;;;;;12.57;4.28;;;-0.70;99.90;;;;;;5057942;28;20038;-56
2024/01/08 08:17:05;;;;;;;7.20;3.42;;;-0.70;99.90;;;;;;5031245;28;20034;-55
2024/01/08 08:19:31;;;;;;;11.25;4.32;;;-0.70;99.90;;;;;;5025548;28;20046;-56
2024/01/08 08:21:57;;;;;;;8.73;4.00;;;-0.70;99.90;;;;;;5005542;28;20087;-57
2024/01/08 08:24:23;;;;;;;11.30;4.07;;;-0.70;99.90;;;;;;5030010;28;20039;-56
2024/01/08 08:26:49;;;;;;;11.93;3.58;;;-0.70;99.90;;;;;;5024557;28;20506;-57
2024/01/08 08:29:15;;;;;;;10.85;4.10;;;-0.70;99.90;;;;;;5021881;28;20062;-56
2024/01/08 08:31:41;;;;;;;10.13;3.92;;;-0.60;99.90;;;;;;5013332;27;20030;-55
2024/01/08 08:34:09;;;;;;;8.98;4.43;;;-0.70;99.90;;;;;;5020714;28;20034;-57
2024/01/08 08:36:41;;;;;;;10.05;3.72;;;-0.60;99.90;;;;;;5001259;28;20052;-55
2024/01/08 08:39:07;;;;;;;7.65;3.67;;;-0.60;99.90;;;;;;5021445;28;20034;-57
2024/01/08 08:41:32;;;;;;;10.20;4.05;;;-0.60;99.90;;;;;;5026788;28;20046;-55
2024/01/08 08:43:58;;;;;;;9.23;4.05;;;-0.50;99.90;;;;;;5003531;28;20088;-56
2024/01/08 08:46:24;;;;;;;8.35;3.28;;;-0.50;99.90;;;;;;5023609;28;20058;-57
2024/01/08 08:48:49;;;;;;;9.20;3.47;;;-0.50;99.90;;;;;;5024774;28;20054;-56
2024/01/08 08:51:15;;;;;;;7.05;3.45;;;-0.50;99.90;;;;;;5014316;28;20538;-57
2024/01/08 08:53:41;;;;;;;8.40;3.70;;;-0.50;99.90;;;;;;5023557;28;20042;-57
2024/01/08 08:56:08;;;;;;;11.10;3.42;;;-0.50;99.90;;;;;;5027265;28;20396;-55
2024/01/08 08:58:34;;;;;;;6.80;3.65;;;-0.50;99.90;;;;;;5000495;28;20121;-55
2024/01/08 09:01:00;;;;;;;8.95;3.40;;;-0.40;99.90;;;;;;5003755;28;20141;-54
2024/01/08 09:03:25;;;;;;;9.15;3.65;;;-0.40;99.90;;;;;;5022948;28;20045;-55
2024/01/08 09:05:52;;;;;;;7.32;3.85;;;-0.40;99.90;;;;;;5019244;28;20038;-54
2024/01/08 09:08:18;;;;;;;8.23;3.42;;;-0.30;99.90;;;;;;5023535;28;20044;-56
2024/01/08 09:10:43;;;;;;;7.30;3.40;;;-0.40;99.90;;;;;;5024934;28;21245;-56
2024/01/08 09:13:10;;;;;;;7.75;3.33;;;-0.30;99.90;;;;;;5002933;28;20041;-55
2024/01/08 09:15:35;;;;;;;7.70;3.40;;;-0.40;99.90;;;;;;5021597;28;20031;-58
2024/01/08 09:18:01;;;;;;;7.47;3.25;;;-0.30;99.90;;;;;;5022905;28;20478;-56
2024/01/08 09:20:27;;;;;;;7.20;3.28;;;-0.20;99.90;;;;;;5026185;28;20092;-56
2024/01/08 09:22:52;;;;;;;8.48;3.50;;;-0.30;99.90;;;;;;5012311;28;20044;-57
2024/01/08 09:25:19;;;;;;;6.38;2.88;;;-0.30;99.90;;;;;;5019214;28;20482;-55
2024/01/08 09:27:45;;;;;;;9.07;3.63;;;-0.30;99.90;;;;;;5036369;28;20409;-57
2024/01/08 09:30:11;;;;;;;11.00;3.38;;;-0.20;99.90;;;;;;5022157;28;20046;-57
2024/01/08 09:32:37;;;;;;;11.88;3.42;;;-0.20;99.90;;;;;;4998101;28;20487;-57
2024/01/08 09:35:02;;;;;;;7.18;3.20;;;-0.20;99.90;;;;;;5012682;28;20037;-56
2024/01/08 09:37:28;;;;;;;8.02;3.00;;;-0.20;99.90;;;;;;5011141;28;20057;-56
2024/01/08 09:39:54;;;;;;;7.05;3.50;;;-0.10;99.90;;;;;;5020799;28;20519;-58
2024/01/08 09:42:21;;;;;;;7.82;3.20;;;-0.20;99.90;;;;;;5004077;28;21484;-55
2024/01/08 09:44:53;;;;;;;11.23;3.13;;;-0.10;99.90;;;;;;5016081;28;20370;-57
2024/01/08 09:47:20;;;;;;;11.60;3.85;;;-0.10;99.90;;;;;;5002587;28;20049;-57
2024/01/08 09:49:46;;;;;;;7.22;3.00;;;-0.10;99.90;;;;;;5030154;28;20536;-55
2024/01/08 09:52:16;;;;;;;7.78;3.40;;;-0.10;99.90;;;;;;5024943;28;20065;-57
2024/01/08 09:54:43;;;;;;;9.70;3.60;;;-0.10;99.90;;;;;;5021763;28;20030;-56
2024/01/08 09:57:09;;;;;;;7.32;3.50;;;-0.10;99.90;;;;;;5022767;28;20040;-56
2024/01/08 09:59:35;;;;;;;8.23;3.90;;;-0.10;99.90;;;;;;5014469;28;20432;-56
2024/01/08 10:02:01;;;;;;;7.90;3.25;;;-0.10;99.90;;;;;;5026961;28;20042;-57
2024/01/08 10:04:26;;;;;;;7.88;3.17;;;0.00;99.90;;;;;;5022523;28;20122;-55
2024/01/08 10:07:05;;;;;;;6.85;3.30;;;0.00;99.90;;;;;;5034896;28;20397;-57
2024/01/08 10:09:31;;;;;;;10.93;3.70;;;-0.10;99.90;;;;;;5019958;28;20114;-55
2024/01/08 10:11:57;;;;;;;12.85;3.40;;;0.10;99.90;;;;;;5005873;28;20147;-58
2024/01/08 10:14:25;;;;;;;11.07;3.97;;;0.10;99.90;;;;;;5025200;28;20038;-57
2024/01/08 10:16:51;;;;;;;7.25;3.20;;;0.00;99.90;;;;;;5018778;28;20046;-57
2024/01/08 10:19:18;;;;;;;11.52;3.92;;;0.00;99.90;;;;;;5005223;28;20057;-57
2024/01/08 10:21:45;;;;;;;9.98;4.20;;;0.00;99.90;;;;;;5031293;28;20038;-58
2024/01/08 10:24:10;;;;;;;8.38;3.50;;;0.00;99.90;;;;;;5021116;28;20034;-57
2024/01/08 10:26:41;;;;;;;8.98;3.63;;;0.00;99.90;;;;;;5023175;28;20481;-58
2024/01/08 10:29:13;;;;;;;9.52;3.90;;;0.00;99.90;;;;;;5010910;28;20047;-58
2024/01/08 10:31:39;;;;;;;8.48;3.30;;;0.10;99.90;;;;;;5010182;28;20477;-57
2024/01/08 10:34:05;;;;;;;6.95;3.25;;;0.10;99.90;;;;;;5020617;28;20068;-58
2024/01/08 10:36:32;;;;;;;6.97;3.22;;;0.10;99.90;;;;;;5011408;28;20503;-54
2024/01/08 10:39:01;;;;;;;8.38;3.28;;;0.10;99.90;;;;;;5022651;28;20484;-57
2024/01/08 10:41:27;;;;;;;8.60;3.20;;;0.10;99.90;;;;;;5023627;28;20175;-55
2024/01/08 10:43:53;;;;;;;10.63;3.45;;;0.10;99.90;;;;;;5016698;28;20113;-57
2024/01/08 10:46:22;;;;;;;7.43;3.58;;;0.10;99.90;;;;;;5017436;28;20505;-52
2024/01/08 10:48:50;;;;;;;6.82;2.97;;;0.20;99.90;;;;;;5014540;28;20081;-54
2024/01/08 10:51:17;;;;;;;8.70;4.07;;;0.10;99.90;;;;;;5010383;28;20038;-57
2024/01/08 10:53:48;;;;;;;9.80;3.30;;;0.20;99.90;;;;;;4998208;28;20036;-55
2024/01/08 10:56:15;;;;;;;7.55;3.53;;;0.20;99.90;;;;;;5006490;28;20042;-56
2024/01/08 10:59:06;;;;;;;8.55;3.33;;;0.20;99.90;;;;;;5021150;28;20046;-54
2024/01/08 11:01:33;;;;;;;7.50;3.38;;;0.20;99.90;;;;;;5029697;28;20053;-55
2024/01/08 11:04:06;;;;;;;5.82;2.92;;;0.20;99.90;;;;;;5013105;28;20082;-56
2024/01/08 11:06:36;;;;;;;9.27;3.60;;;0.30;99.90;;;;;;5019929;28;20082;-55
2024/01/08 11:09:04;;;;;;;9.60;3.30;;;0.30;99.90;;;;;;5022225;28;20034;-56
2024/01/08 11:11:33;;;;;;;6.20;2.95;;;0.30;99.90;;;;;;5017214;28;20042;-57
2024/01/08 11:14:03;;;;;;;9.60;3.33;;;0.40;99.90;;;;;;5015134;28;20449;-58
2024/01/08 11:16:30;;;;;;;7.82;3.40;;;0.50;99.90;;;;;;5020564;28;20031;-56
2024/01/08 11:19:17;;;;;;;8.20;3.17;;;0.60;99.90;;;;;;5017738;28;20366;-53
2024/01/08 11:21:43;;;;;;;9.80;3.33;;;0.60;99.90;;;;;;5021562;28;20095;-58
2024/01/08 11:24:09;;;;;;;8.98;3.78;;;1.10;99.90;;;;;;5029091;28;20046;-56
2024/01/08 11:26:41;;;;;;;12.18;4.10;;;0.60;99.90;;;;;;5026166;28;20121;-54
2024/01/08 11:29:09;;;;;;;6.30;3.42;;;0.70;99.90;;;;;;5020042;28;20422;-54
2024/01/08 11:31:49;;;;;;;6.80;3.58;;;0.80;99.90;;;;;;5025838;28;20038;-56
2024/01/08 11:34:42;;;;;;;10.48;3.03;;;0.90;99.90;;;;;;5014321;28;20042;-56
2024/01/08 11:37:11;;;;;;;8.45;3.35;;;0.90;99.90;;;;;;5030088;28;20037;-58
2024/01/08 11:39:40;;;;;;;7.72;3.45;;;0.70;99.90;;;;;;5030627;28;20126;-56
2024/01/08 11:42:07;;;;;;;10.02;3.72;;;0.70;99.90;;;;;;5013829;28;20067;-54
2024/01/08 11:44:33;;;;;;;8.52;3.10;;;0.80;99.90;;;;;;5019415;28;20210;-57
2024/01/08 11:47:03;;;;;;;6.78;3.53;;;0.70;99.90;;;;;;5022564;28;20560;-55
2024/01/08 11:49:29;;;;;;;9.07;3.42;;;0.80;99.90;;;;;;5002574;28;20055;-55
2024/01/08 11:52:00;;;;;;;6.85;3.10;;;1.10;99.90;;;;;;5018493;28;20031;-54
2024/01/08 11:54:26;;;;;;;6.15;3.13;;;1.60;99.90;;;;;;5016441;28;20030;-57
2024/01/08 11:56:52;;;;;;;5.95;2.65;;;2.10;99.90;;;;;;5018636;28;20029;-59
2024/01/08 11:59:36;;;;;;;9.23;3.28;;;2.30;99.90;;;;;;5023529;28;20484;-57
2024/01/08 12:02:11;;;;;;;7.28;2.88;;;2.20;99.90;;;;;;5011239;28;20129;-57
2024/01/08 12:04:37;;;;;;;6.22;2.83;;;2.20;99.90;;;;;;5030555;28;20087;-56
2024/01/08 12:07:03;;;;;;;5.47;2.72;;;2.30;99.90;;;;;;5036404;28;20038;-57
2024/01/08 12:09:31;;;;;;;10.07;3.20;;;2.50;99.90;;;;;;5023751;28;20048;-58
2024/01/08 12:12:05;;;;;;;5.53;3.08;;;3.00;99.90;;;;;;5022801;28;20066;-57
2024/01/08 12:14:32;;;;;;;7.25;3.13;;;2.90;99.90;;;;;;5019802;28;20026;-58
2024/01/08 12:16:58;;;;;;;9.15;3.50;;;3.10;99.90;;;;;;5010902;28;20038;-58
2024/01/08 12:19:41;;;;;;;10.73;3.92;;;3.30;99.90;;;;;;5032011;28;20489;-57
2024/01/08 12:22:12;;;;;;;11.65;3.85;;;3.30;99.90;;;;;;4989145;28;20053;-59
2024/01/08 12:24:42;;;;;;;7.45;3.25;;;3.30;99.90;;;;;;5023905;28;20093;-57
2024/01/08 12:27:09;;;;;;;7.13;3.38;;;3.40;99.90;;;;;;5022297;28;20041;-58
2024/01/08 12:29:39;;;;;;;8.65;3.70;;;3.50;99.90;;;;;;5025836;28;20508;-56
2024/01/08 12:32:06;;;;;;;7.60;3.53;;;3.80;99.90;;;;;;5017640;28;20071;-57
2024/01/08 12:34:33;;;;;;;7.15;3.10;;;3.50;99.90;;;;;;5021116;28;20111;-58
2024/01/08 12:36:59;;;;;;;6.15;3.33;;;3.50;99.90;;;;;;5034631;28;20035;-59
2024/01/08 12:39:29;;;;;;;6.38;3.35;;;3.30;99.90;;;;;;5022619;28;20526;-58
2024/01/08 12:41:58;;;;;;;8.93;3.72;;;3.00;99.90;;;;;;5025511;28;20049;-59
2024/01/08 12:44:31;;;;;;;8.60;4.10;;;2.50;99.90;;;;;;5025869;28;20042;-59